createdAt,value
2019-03-30T00:00:41.311Z,48.10
2019-03-30T00:01:41.317Z,48.20
2019-03-30T00:02:41.329Z,48.29
2019-03-30T00:03:41.332Z,48.86
2019-03-30T00:04:41.343Z,48.29
2019-03-30T00:05:41.351Z,48.01
2019-03-30T00:06:41.359Z,47.63
2019-03-30T00:07:41.368Z,47.72
2019-03-30T00:08:41.380Z,47.25
2019-03-30T00:09:41.387Z,46.88
2019-03-30T00:10:41.395Z,46.97
2019-03-30T00:11:41.402Z,46.50
2019-03-30T00:12:41.416Z,46.50
2019-03-30T00:13:41.419Z,46.50
2019-03-30T00:14:41.435Z,46.50
2019-03-30T00:15:41.437Z,46.31
2019-03-30T00:16:41.446Z,46.78
2019-03-30T00:17:41.455Z,46.59
2019-03-30T00:18:41.671Z,46.78
2019-03-30T00:19:41.482Z,46.40
2019-03-30T00:20:41.483Z,46.78
2019-03-30T00:21:41.492Z,46.78
2019-03-30T00:22:41.500Z,46.40
2019-03-30T00:23:41.508Z,46.31
2019-03-30T00:24:41.519Z,46.69
2019-03-30T00:25:41.526Z,46.50
2019-03-30T00:26:41.535Z,46.31
2019-03-30T00:27:41.548Z,45.83
2019-03-30T00:28:41.552Z,45.74
2019-03-30T00:29:41.566Z,45.55
2019-03-30T00:30:41.581Z,45.93
2019-03-30T00:31:41.584Z,46.12
2019-03-30T00:32:41.588Z,46.21
2019-03-30T00:33:41.597Z,46.50
2019-03-30T00:34:41.607Z,46.31
2019-03-30T00:35:41.615Z,46.40
2019-03-30T00:36:41.628Z,45.93
2019-03-30T00:37:41.633Z,45.45
2019-03-30T00:38:41.642Z,44.98
2019-03-30T00:39:41.650Z,44.60
2019-03-30T00:40:41.662Z,44.13
2019-03-30T00:41:41.667Z,42.99
2019-03-30T00:42:41.675Z,42.80
2019-03-30T00:43:41.681Z,42.43
2019-03-30T00:44:41.693Z,41.95
2019-03-30T00:45:41.702Z,41.95
2019-03-30T00:46:41.709Z,42.43
2019-03-30T00:47:41.719Z,42.52
2019-03-30T00:48:41.727Z,43.08
2019-03-30T00:49:49.184Z,42.04
2019-03-30T00:50:41.748Z,42.33
2019-03-30T00:51:41.754Z,42.43
2019-03-30T00:52:41.763Z,42.43
2019-03-30T00:53:41.774Z,42.43
2019-03-30T00:54:41.783Z,42.14
2019-03-30T00:55:41.789Z,41.95
2019-03-30T00:56:41.796Z,42.04
2019-03-30T00:57:41.807Z,42.04
2019-03-30T00:58:41.816Z,42.99
2019-03-30T00:59:41.823Z,42.43
2019-03-30T01:00:41.833Z,42.33
2019-03-30T01:01:41.855Z,42.23
2019-03-30T01:02:41.850Z,41.95
2019-03-30T01:03:41.867Z,42.23
2019-03-30T01:04:41.863Z,41.76
2019-03-30T01:05:41.876Z,41.76
2019-03-30T01:06:41.890Z,41.76
2019-03-30T01:07:41.888Z,41.66
2019-03-30T01:08:41.897Z,41.57
2019-03-30T01:09:41.906Z,41.85
2019-03-30T01:10:41.918Z,42.33
2019-03-30T01:11:41.926Z,42.61
2019-03-30T01:12:41.936Z,42.43
2019-03-30T01:13:41.941Z,42.43
2019-03-30T01:14:41.950Z,42.52
2019-03-30T01:15:41.960Z,41.95
2019-03-30T01:16:41.970Z,42.14
2019-03-30T01:17:41.974Z,42.04
2019-03-30T01:18:41.985Z,42.33
2019-03-30T01:19:41.996Z,41.95
2019-03-30T01:20:42.002Z,42.04
2019-03-30T01:21:42.012Z,42.04
2019-03-30T01:22:42.025Z,41.95
2019-03-30T01:23:42.029Z,42.04
2019-03-30T01:24:42.038Z,42.04
2019-03-30T01:25:42.049Z,41.85
2019-03-30T01:26:42.056Z,41.57
2019-03-30T01:27:42.082Z,41.76
2019-03-30T01:28:42.069Z,41.76
2019-03-30T01:29:42.083Z,42.04
2019-03-30T01:30:42.090Z,42.14
2019-03-30T01:31:42.095Z,42.90
2019-03-30T01:32:42.108Z,43.08
2019-03-30T01:33:42.116Z,42.99
2019-03-30T01:34:42.125Z,43.18
2019-03-30T01:35:42.137Z,43.08
2019-03-30T01:36:42.136Z,42.80
2019-03-30T01:37:42.149Z,43.37
2019-03-30T01:38:42.155Z,44.03
2019-03-30T01:39:42.162Z,44.70
2019-03-30T01:40:42.177Z,45.74
2019-03-30T01:41:42.185Z,46.59
2019-03-30T01:42:42.189Z,46.88
2019-03-30T01:43:42.197Z,47.32
2019-03-30T01:44:42.205Z,47.42
2019-03-30T01:45:42.213Z,48.18
2019-03-30T01:46:42.222Z,48.18
2019-03-30T01:47:42.229Z,48.55
2019-03-30T01:48:42.240Z,48.08
2019-03-30T01:49:42.247Z,48.18
2019-03-30T01:50:42.256Z,48.55
2019-03-30T01:51:42.261Z,48.55
2019-03-30T01:52:42.271Z,48.55
2019-03-30T01:53:42.280Z,49.12
2019-03-30T01:54:42.289Z,49.41
2019-03-30T01:55:42.309Z,49.41
2019-03-30T01:56:42.305Z,49.50
2019-03-30T01:57:42.313Z,49.50
2019-03-30T01:58:42.326Z,49.69
2019-03-30T01:59:42.335Z,49.88
2019-03-30T02:00:42.339Z,50.07
2019-03-30T02:01:42.345Z,50.07
2019-03-30T02:02:42.355Z,49.41
2019-03-30T02:03:42.361Z,49.50
2019-03-30T02:04:42.372Z,49.22
2019-03-30T02:05:42.392Z,48.74
2019-03-30T02:06:42.409Z,48.46
2019-03-30T02:07:42.398Z,48.27
2019-03-30T02:08:42.404Z,47.99
2019-03-30T02:09:42.414Z,47.70
2019-03-30T02:10:42.423Z,48.27
2019-03-30T02:11:42.431Z,47.99
2019-03-30T02:12:42.439Z,47.99
2019-03-30T02:13:42.447Z,47.89
2019-03-30T02:14:42.455Z,48.08
2019-03-30T02:15:42.458Z,47.42
2019-03-30T02:16:42.472Z,47.51
2019-03-30T02:17:42.482Z,47.80
2019-03-30T02:18:42.483Z,47.80
2019-03-30T02:19:42.495Z,47.99
2019-03-30T02:20:42.503Z,48.27
2019-03-30T02:21:42.512Z,48.08
2019-03-30T02:22:42.517Z,48.27
2019-03-30T02:23:42.527Z,48.55
2019-03-30T02:24:42.537Z,48.84
2019-03-30T02:25:42.539Z,48.65
2019-03-30T02:26:42.548Z,48.55
2019-03-30T02:27:42.556Z,49.31
2019-03-30T02:28:42.566Z,49.12
2019-03-30T02:29:42.572Z,49.03
2019-03-30T02:30:42.585Z,49.41
2019-03-30T02:31:42.594Z,49.50
2019-03-30T02:32:42.603Z,49.69
2019-03-30T02:33:42.605Z,50.54
2019-03-30T02:34:42.613Z,50.35
2019-03-30T02:35:42.626Z,50.45
2019-03-30T02:36:42.639Z,50.26
2019-03-30T02:37:42.642Z,49.98
2019-03-30T02:38:42.652Z,50.07
2019-03-30T02:39:42.658Z,50.26
2019-03-30T02:40:42.662Z,49.79
2019-03-30T02:41:42.673Z,49.69
2019-03-30T02:42:42.679Z,49.88
2019-03-30T02:43:42.686Z,49.50
2019-03-30T02:44:42.701Z,50.26
2019-03-30T02:45:42.707Z,49.98
2019-03-30T02:46:42.719Z,50.07
2019-03-30T02:47:42.717Z,50.16
2019-03-30T02:48:42.731Z,50.16
2019-03-30T02:49:42.735Z,50.07
2019-03-30T02:50:50.130Z,49.79
2019-03-30T02:51:42.854Z,50.35
2019-03-30T02:52:42.763Z,50.07
2019-03-30T02:53:42.766Z,49.41
2019-03-30T02:54:42.826Z,49.31
2019-03-30T02:55:42.794Z,48.46
2019-03-30T02:56:42.794Z,49.22
2019-03-30T02:57:42.807Z,49.41
2019-03-30T02:58:42.810Z,50.26
2019-03-30T02:59:42.819Z,49.98
2019-03-30T03:00:42.824Z,50.07
2019-03-30T03:01:42.830Z,50.07
2019-03-30T03:02:42.843Z,50.63
2019-03-30T03:03:42.849Z,50.16
2019-03-30T03:04:42.861Z,51.01
2019-03-30T03:05:42.869Z,50.82
2019-03-30T03:06:42.876Z,51.01
2019-03-30T03:07:42.886Z,50.82
2019-03-30T03:08:42.896Z,50.63
2019-03-30T03:09:42.900Z,50.82
2019-03-30T03:10:42.906Z,50.82
2019-03-30T03:11:42.914Z,50.26
2019-03-30T03:12:42.924Z,50.54
2019-03-30T03:13:42.929Z,50.16
2019-03-30T03:14:42.937Z,50.63
2019-03-30T03:15:42.942Z,51.01
2019-03-30T03:16:42.954Z,51.01
2019-03-30T03:17:42.961Z,51.39
2019-03-30T03:18:42.971Z,51.58
2019-03-30T03:19:42.984Z,51.58
2019-03-30T03:20:42.998Z,51.96
2019-03-30T03:21:42.997Z,51.49
2019-03-30T03:22:43.012Z,51.11
2019-03-30T03:23:43.009Z,51.01
2019-03-30T03:24:43.015Z,50.92
2019-03-30T03:25:43.032Z,50.35
2019-03-30T03:26:43.039Z,50.26
2019-03-30T03:27:43.042Z,50.26
2019-03-30T03:28:43.049Z,50.45
2019-03-30T03:29:43.877Z,50.82
2019-03-30T03:30:43.069Z,51.01
2019-03-30T03:31:43.086Z,50.35
2019-03-30T03:32:43.082Z,50.16
2019-03-30T03:33:43.274Z,50.54
2019-03-30T03:34:43.108Z,50.45
2019-03-30T03:35:43.109Z,50.45
2019-03-30T03:36:43.114Z,50.45
2019-03-30T03:37:46.045Z,50.07
2019-03-30T03:38:43.128Z,50.26
2019-03-30T03:39:43.139Z,50.63
2019-03-30T03:40:43.148Z,50.07
2019-03-30T03:41:43.155Z,50.07
2019-03-30T03:42:43.173Z,50.07
2019-03-30T03:43:43.168Z,50.07
2019-03-30T03:44:43.175Z,50.26
2019-03-30T03:45:43.187Z,50.07
2019-03-30T03:46:43.193Z,49.88
2019-03-30T03:47:43.203Z,49.98
2019-03-30T03:48:43.213Z,50.16
2019-03-30T03:49:43.219Z,50.16
2019-03-30T03:50:43.227Z,50.07
2019-03-30T03:51:43.240Z,50.16
2019-03-30T03:52:43.241Z,50.07
2019-03-30T03:53:43.246Z,49.98
2019-03-30T03:54:43.259Z,50.07
2019-03-30T03:55:43.277Z,50.26
2019-03-30T03:56:43.272Z,50.45
2019-03-30T03:57:43.275Z,50.26
2019-03-30T03:58:43.287Z,49.79
2019-03-30T03:59:43.297Z,49.79
2019-03-30T04:00:43.301Z,49.31
2019-03-30T04:01:43.309Z,49.41
2019-03-30T04:02:43.317Z,49.31
2019-03-30T04:03:43.332Z,48.84
2019-03-30T04:04:47.003Z,48.36
2019-03-30T04:05:43.342Z,48.65
2019-03-30T04:06:43.347Z,49.22
2019-03-30T04:07:43.357Z,50.07
2019-03-30T04:08:43.373Z,50.16
2019-03-30T04:09:43.374Z,50.07
2019-03-30T04:10:43.382Z,50.82
2019-03-30T04:11:43.387Z,50.63
2019-03-30T04:12:43.392Z,50.82
2019-03-30T04:13:43.397Z,50.63
2019-03-30T04:14:43.409Z,50.35
2019-03-30T04:15:43.453Z,50.54
2019-03-30T04:16:43.425Z,50.26
2019-03-30T04:17:43.431Z,48.46
2019-03-30T04:18:47.703Z,48.27
2019-03-30T04:19:43.445Z,48.65
2019-03-30T04:20:43.459Z,49.22
2019-03-30T04:21:44.799Z,49.41
2019-03-30T04:22:43.470Z,49.69
2019-03-30T04:23:43.570Z,49.76
2019-03-30T04:24:43.487Z,49.69
2019-03-30T04:25:43.493Z,50.04
2019-03-30T04:26:43.499Z,50.42
2019-03-30T04:27:43.519Z,50.54
2019-03-30T04:28:43.516Z,50.61
2019-03-30T04:29:43.520Z,50.63
2019-03-30T04:30:43.526Z,49.98
2019-03-30T04:31:43.536Z,50.16
2019-03-30T04:32:43.547Z,49.41
2019-03-30T04:33:43.550Z,49.50
2019-03-30T04:34:43.563Z,49.31
2019-03-30T04:35:43.567Z,49.12
2019-03-30T04:36:43.577Z,49.19
2019-03-30T04:37:43.584Z,48.84
2019-03-30T04:38:43.587Z,48.63
2019-03-30T04:39:43.594Z,49.38
2019-03-30T04:40:43.612Z,49.29
2019-03-30T04:41:43.613Z,49.01
2019-03-30T04:42:43.620Z,49.50
2019-03-30T04:43:43.628Z,49.50
2019-03-30T04:44:43.642Z,49.38
2019-03-30T04:45:43.654Z,49.48
2019-03-30T04:46:43.654Z,49.48
2019-03-30T04:47:43.657Z,49.57
2019-03-30T04:48:43.672Z,49.48
2019-03-30T04:49:43.673Z,49.50
2019-03-30T04:50:43.680Z,49.50
2019-03-30T04:51:56.549Z,49.41
2019-03-30T04:52:43.694Z,49.41
2019-03-30T04:53:43.722Z,49.31
2019-03-30T04:54:43.718Z,49.66
2019-03-30T04:55:43.716Z,49.38
2019-03-30T04:56:43.721Z,49.60
2019-03-30T04:57:43.733Z,49.79
2019-03-30T04:58:43.738Z,50.42
2019-03-30T04:59:43.748Z,51.20
2019-03-30T05:00:43.755Z,50.61
2019-03-30T05:01:43.760Z,51.09
2019-03-30T05:02:43.783Z,50.71
2019-03-30T05:03:43.777Z,50.61
2019-03-30T05:04:43.785Z,50.92
2019-03-30T05:05:43.792Z,51.01
2019-03-30T05:06:43.797Z,50.61
2019-03-30T05:07:43.807Z,50.42
2019-03-30T05:08:43.813Z,50.45
2019-03-30T05:09:43.822Z,49.69
2019-03-30T05:10:43.830Z,49.95
2019-03-30T05:11:43.837Z,49.57
2019-03-30T05:12:43.841Z,49.38
2019-03-30T05:13:43.855Z,49.29
2019-03-30T05:14:43.856Z,49.48
2019-03-30T05:15:43.865Z,49.60
2019-03-30T05:16:43.871Z,50.23
2019-03-30T05:17:47.404Z,50.04
2019-03-30T05:18:43.889Z,50.04
2019-03-30T05:19:43.895Z,49.48
2019-03-30T05:20:43.904Z,49.01
2019-03-30T05:21:43.910Z,49.10
2019-03-30T05:22:43.920Z,49.19
2019-03-30T05:23:43.927Z,49.38
2019-03-30T05:24:43.933Z,49.10
2019-03-30T05:25:43.939Z,49.38
2019-03-30T05:26:43.951Z,50.23
2019-03-30T05:27:43.955Z,50.33
2019-03-30T05:28:43.960Z,50.14
2019-03-30T05:29:43.968Z,50.61
2019-03-30T05:30:43.980Z,50.23
2019-03-30T05:31:43.984Z,49.98
2019-03-30T05:32:43.991Z,50.52
2019-03-30T05:33:44.005Z,49.95
2019-03-30T05:34:44.010Z,49.85
2019-03-30T05:35:44.015Z,49.95
2019-03-30T05:36:44.025Z,49.57
2019-03-30T05:37:44.029Z,49.48
2019-03-30T05:38:44.036Z,48.36
2019-03-30T05:39:44.044Z,47.51
2019-03-30T05:40:44.055Z,46.36
2019-03-30T05:41:44.060Z,45.90
2019-03-30T05:42:44.069Z,45.24
2019-03-30T05:43:44.077Z,44.93
2019-03-30T05:44:44.084Z,43.26
2019-03-30T05:45:44.095Z,42.88
2019-03-30T05:46:44.097Z,42.97
2019-03-30T05:47:44.108Z,42.78
2019-03-30T05:48:44.122Z,43.07
2019-03-30T05:49:44.124Z,41.74
2019-03-30T05:50:44.130Z,41.55
2019-03-30T05:51:44.138Z,41.27
2019-03-30T05:52:44.145Z,40.98
2019-03-30T05:53:44.154Z,40.51
2019-03-30T05:54:44.156Z,40.51
2019-03-30T05:55:44.166Z,40.60
2019-03-30T05:56:44.172Z,40.13
2019-03-30T05:57:44.184Z,39.37
2019-03-30T05:58:44.198Z,39.65
2019-03-30T05:59:44.195Z,40.03
2019-03-30T06:00:44.208Z,39.84
2019-03-30T06:01:44.211Z,39.65
2019-03-30T06:02:44.221Z,40.32
2019-03-30T06:03:44.225Z,40.51
2019-03-30T06:04:44.243Z,40.22
2019-03-30T06:05:44.247Z,39.75
2019-03-30T06:06:44.253Z,40.03
2019-03-30T06:07:44.258Z,39.47
2019-03-30T06:08:44.264Z,39.18
2019-03-30T06:09:44.276Z,39.56
2019-03-30T06:10:44.291Z,40.13
2019-03-30T06:11:44.287Z,39.65
2019-03-30T06:12:44.301Z,39.56
2019-03-30T06:13:44.304Z,39.47
2019-03-30T06:14:44.314Z,39.37
2019-03-30T06:15:44.324Z,38.71
2019-03-30T06:16:44.329Z,38.90
2019-03-30T06:17:44.334Z,38.90
2019-03-30T06:18:44.342Z,39.00
2019-03-30T06:19:44.348Z,38.33
2019-03-30T06:20:44.361Z,37.95
2019-03-30T06:21:44.370Z,37.95
2019-03-30T06:22:44.377Z,38.43
2019-03-30T06:23:44.379Z,39.37
2019-03-30T06:24:44.397Z,41.27
2019-03-30T06:25:44.395Z,42.88
2019-03-30T06:26:44.408Z,44.10
2019-03-30T06:27:44.410Z,45.15
2019-03-30T06:28:44.422Z,45.05
2019-03-30T06:29:44.426Z,45.62
2019-03-30T06:30:44.436Z,45.90
2019-03-30T06:31:46.787Z,46.09
2019-03-30T06:32:44.452Z,46.47
2019-03-30T06:33:44.456Z,47.04
2019-03-30T06:34:44.467Z,45.81
2019-03-30T06:35:44.473Z,45.81
2019-03-30T06:36:44.485Z,46.19
2019-03-30T06:37:44.488Z,47.32
2019-03-30T06:38:44.499Z,47.70
2019-03-30T06:39:44.503Z,47.89
2019-03-30T06:40:44.544Z,48.18
2019-03-30T06:41:44.522Z,48.65
2019-03-30T06:42:44.528Z,48.55
2019-03-30T06:43:44.534Z,47.99
2019-03-30T06:44:44.541Z,48.18
2019-03-30T06:45:44.551Z,47.70
2019-03-30T06:46:44.561Z,47.13
2019-03-30T06:47:44.564Z,47.70
2019-03-30T06:48:44.576Z,47.04
2019-03-30T06:49:44.582Z,46.19
2019-03-30T06:50:44.594Z,46.37
2019-03-30T06:51:44.601Z,46.69
2019-03-30T06:52:56.722Z,46.19
2019-03-30T06:53:44.611Z,45.55
2019-03-30T06:54:44.630Z,45.55
2019-03-30T06:55:44.625Z,45.64
2019-03-30T06:56:44.704Z,45.93
2019-03-30T06:57:44.643Z,45.64
2019-03-30T06:58:44.653Z,45.55
2019-03-30T06:59:44.661Z,44.03
2019-03-30T07:00:44.666Z,43.27
2019-03-30T07:01:44.676Z,42.90
2019-03-30T07:02:44.686Z,42.04
2019-03-30T07:03:44.688Z,41.38
2019-03-30T07:04:44.701Z,41.19
2019-03-30T07:05:44.707Z,40.83
2019-03-30T07:06:44.714Z,39.51
2019-03-30T07:07:44.728Z,39.13
2019-03-30T07:08:44.731Z,39.60
2019-03-30T07:09:44.742Z,37.14
2019-03-30T07:10:44.747Z,36.29
2019-03-30T07:11:44.757Z,36.19
2019-03-30T07:12:44.766Z,35.72
2019-03-30T07:13:44.774Z,34.86
2019-03-30T07:14:44.784Z,35.07
2019-03-30T07:15:44.785Z,34.12
2019-03-30T07:16:44.795Z,33.56
2019-03-30T07:17:44.809Z,33.75
2019-03-30T07:18:44.811Z,30.99
2019-03-30T07:19:44.818Z,31.09
2019-03-30T07:20:44.828Z,31.56
2019-03-30T07:21:44.840Z,30.52
2019-03-30T07:22:44.849Z,30.99
2019-03-30T07:23:44.851Z,31.95
2019-03-30T07:24:44.863Z,32.04
2019-03-30T07:25:44.881Z,31.95
2019-03-30T07:26:44.881Z,31.66
2019-03-30T07:27:44.885Z,31.28
2019-03-30T07:28:47.141Z,30.80
2019-03-30T07:29:44.902Z,30.71
2019-03-30T07:30:44.987Z,30.14
2019-03-30T07:31:44.920Z,31.18
2019-03-30T07:32:44.934Z,31.56
2019-03-30T07:33:44.942Z,31.28
2019-03-30T07:34:44.955Z,31.56
2019-03-30T07:35:44.959Z,30.80
2019-03-30T07:36:44.962Z,30.52
2019-03-30T07:37:45.002Z,29.86
2019-03-30T07:38:44.981Z,30.54
2019-03-30T07:39:44.992Z,29.86
2019-03-30T07:40:44.996Z,29.67
2019-03-30T07:41:45.013Z,30.16
2019-03-30T07:42:45.017Z,30.25
2019-03-30T07:43:45.024Z,29.97
2019-03-30T07:44:45.035Z,29.87
2019-03-30T07:45:45.041Z,31.01
2019-03-30T07:46:45.048Z,30.91
2019-03-30T07:47:45.057Z,30.73
2019-03-30T07:48:45.071Z,31.58
2019-03-30T07:49:45.077Z,31.10
2019-03-30T07:50:45.089Z,30.25
2019-03-30T07:51:45.091Z,30.44
2019-03-30T07:52:45.104Z,30.54
2019-03-30T07:53:45.224Z,30.54
2019-03-30T07:54:45.190Z,30.63
2019-03-30T07:55:45.127Z,29.59
2019-03-30T07:56:45.142Z,29.87
2019-03-30T07:57:45.149Z,29.59
2019-03-30T07:58:45.151Z,30.16
2019-03-30T07:59:45.158Z,29.02
2019-03-30T08:00:45.170Z,28.64
2019-03-30T08:01:45.177Z,29.49
2019-03-30T08:02:45.185Z,29.02
2019-03-30T08:03:45.194Z,28.74
2019-03-30T08:04:45.203Z,28.64
2019-03-30T08:05:45.214Z,29.11
2019-03-30T08:06:45.220Z,29.59
2019-03-30T08:07:45.234Z,29.59
2019-03-30T08:08:45.241Z,29.87
2019-03-30T08:09:45.252Z,30.46
2019-03-30T08:10:45.262Z,29.70
2019-03-30T08:11:45.270Z,28.94
2019-03-30T08:12:45.274Z,29.60
2019-03-30T08:13:45.283Z,28.55
2019-03-30T08:14:45.412Z,29.51
2019-03-30T08:15:45.302Z,30.27
2019-03-30T08:16:45.313Z,29.79
2019-03-30T08:17:45.317Z,30.09
2019-03-30T08:18:45.333Z,29.33
2019-03-30T08:19:45.338Z,27.91
2019-03-30T08:20:45.347Z,27.81
2019-03-30T08:21:45.356Z,27.91
2019-03-30T08:22:45.367Z,28.96
2019-03-30T08:23:45.370Z,29.62
2019-03-30T08:24:45.387Z,31.23
2019-03-30T08:25:45.393Z,29.90
2019-03-30T08:26:45.402Z,31.15
2019-03-30T08:27:45.413Z,30.58
2019-03-30T08:28:45.423Z,29.82
2019-03-30T08:29:45.428Z,28.59
2019-03-30T08:30:45.437Z,27.81
2019-03-30T08:31:45.450Z,27.73
2019-03-30T08:32:45.460Z,27.45
2019-03-30T08:33:45.466Z,27.64
2019-03-30T08:34:45.480Z,27.53
2019-03-30T08:35:45.493Z,27.25
2019-03-30T08:36:45.494Z,26.67
2019-03-30T08:37:45.505Z,26.10
2019-03-30T08:38:45.514Z,26.10
2019-03-30T08:39:45.523Z,26.01
2019-03-30T08:40:45.533Z,27.34
2019-03-30T08:41:45.547Z,27.44
2019-03-30T08:42:45.559Z,26.77
2019-03-30T08:43:45.564Z,26.67
2019-03-30T08:44:45.574Z,26.48
2019-03-30T08:45:48.761Z,26.50
2019-03-30T08:46:45.598Z,26.50
2019-03-30T08:47:45.605Z,26.31
2019-03-30T08:48:45.614Z,25.74
2019-03-30T08:49:45.630Z,27.55
2019-03-30T08:50:45.635Z,25.84
2019-03-30T08:51:45.647Z,25.54
2019-03-30T08:52:45.652Z,24.96
2019-03-30T08:53:54.409Z,26.59
2019-03-30T08:54:45.672Z,26.59
2019-03-30T08:55:45.684Z,24.32
2019-03-30T08:56:45.692Z,25.07
2019-03-30T08:57:45.729Z,25.45
2019-03-30T08:58:45.725Z,25.26
2019-03-30T08:59:45.726Z,25.75
2019-03-30T09:00:45.739Z,26.32
2019-03-30T09:01:45.748Z,25.84
2019-03-30T09:02:45.757Z,26.21
2019-03-30T09:03:45.766Z,25.55
2019-03-30T09:04:45.777Z,25.55
2019-03-30T09:05:45.785Z,27.56
2019-03-30T09:06:45.796Z,26.70
2019-03-30T09:07:45.805Z,27.46
2019-03-30T09:08:45.819Z,25.74
2019-03-30T09:09:45.826Z,27.45
2019-03-30T09:10:45.834Z,26.97
2019-03-30T09:11:45.851Z,27.55
2019-03-30T09:12:45.859Z,27.64
2019-03-30T09:13:45.868Z,27.16
2019-03-30T09:14:45.880Z,27.83
2019-03-30T09:15:45.895Z,27.75
2019-03-30T09:16:45.901Z,26.70
2019-03-30T09:17:45.910Z,27.75
2019-03-30T09:18:45.921Z,28.79
2019-03-30T09:19:45.931Z,28.13
2019-03-30T09:20:45.942Z,28.79
2019-03-30T09:21:45.949Z,27.83
2019-03-30T09:22:45.967Z,28.51
2019-03-30T09:23:45.969Z,28.89
2019-03-30T09:24:45.980Z,27.65
2019-03-30T09:25:45.995Z,26.51
2019-03-30T09:26:46.005Z,25.94
2019-03-30T09:27:46.039Z,26.61
2019-03-30T09:28:46.026Z,27.56
2019-03-30T09:29:46.038Z,27.48
2019-03-30T09:30:46.047Z,27.09
2019-03-30T09:31:46.068Z,25.67
2019-03-30T09:32:46.067Z,26.24
2019-03-30T09:33:46.079Z,25.29
2019-03-30T09:34:46.087Z,24.33
2019-03-30T09:35:46.100Z,26.23
2019-03-30T09:36:46.157Z,27.48
2019-03-30T09:37:46.120Z,25.76
2019-03-30T09:38:46.134Z,25.21
2019-03-30T09:39:46.144Z,23.58
2019-03-30T09:40:46.153Z,23.39
2019-03-30T09:41:46.167Z,23.00
2019-03-30T09:42:46.178Z,25.30
2019-03-30T09:43:46.183Z,23.39
2019-03-30T09:44:46.199Z,22.34
2019-03-30T09:45:46.211Z,22.92
2019-03-30T09:46:46.223Z,23.21
2019-03-30T09:47:46.232Z,23.59
2019-03-30T09:48:46.242Z,21.97
2019-03-30T09:49:46.255Z,22.54
2019-03-30T09:50:46.269Z,22.83
2019-03-30T09:51:46.277Z,22.46
2019-03-30T09:52:46.288Z,21.89
2019-03-30T09:53:46.305Z,21.98
2019-03-30T09:54:46.310Z,21.69
2019-03-30T09:55:46.325Z,22.84
2019-03-30T09:56:46.337Z,22.35
2019-03-30T09:57:46.350Z,21.59
2019-03-30T09:58:46.361Z,21.97
2019-03-30T09:59:46.369Z,22.65
2019-03-30T10:00:46.380Z,24.08
2019-03-30T10:01:46.393Z,24.28
2019-03-30T10:02:46.406Z,22.85
2019-03-30T10:03:46.421Z,22.75
2019-03-30T10:04:46.429Z,21.22
2019-03-30T10:05:46.442Z,24.09
2019-03-30T10:06:46.458Z,24.10
2019-03-30T10:07:46.471Z,22.58
2019-03-30T10:08:46.479Z,21.72
2019-03-30T10:09:47.403Z,22.19
2019-03-30T10:10:46.505Z,21.91
2019-03-30T10:11:46.520Z,22.86
2019-03-30T10:12:46.531Z,21.71
2019-03-30T10:13:46.540Z,21.51
2019-03-30T10:14:46.558Z,21.89
2019-03-30T10:15:46.569Z,22.46
2019-03-30T10:16:48.769Z,23.80
2019-03-30T10:17:46.598Z,23.61
2019-03-30T10:18:46.606Z,23.90
2019-03-30T10:19:53.062Z,22.86
2019-03-30T10:20:46.635Z,22.85
2019-03-30T10:21:46.648Z,21.41
2019-03-30T10:22:46.657Z,21.71
2019-03-30T10:23:46.673Z,22.00
2019-03-30T10:24:46.685Z,21.80
2019-03-30T10:25:46.696Z,22.96
2019-03-30T10:26:46.713Z,21.42
2019-03-30T10:27:46.720Z,21.23
2019-03-30T10:28:47.193Z,21.71
2019-03-30T10:29:46.752Z,21.23
2019-03-30T10:30:46.763Z,21.22
2019-03-30T10:31:46.776Z,20.66
2019-03-30T10:32:46.786Z,20.46
2019-03-30T10:33:46.810Z,21.51
2019-03-30T10:34:46.817Z,20.85
2019-03-30T10:35:46.830Z,20.37
2019-03-30T10:36:46.838Z,21.04
2019-03-30T10:37:46.852Z,19.98
2019-03-30T10:38:46.870Z,18.47
2019-03-30T10:39:46.882Z,20.18
2019-03-30T10:40:46.896Z,20.09
2019-03-30T10:41:46.908Z,18.86
2019-03-30T10:42:46.917Z,18.38
2019-03-30T10:43:46.936Z,18.67
2019-03-30T10:44:46.951Z,18.96
2019-03-30T10:45:46.963Z,19.42
2019-03-30T10:46:46.971Z,20.56
2019-03-30T10:47:46.988Z,21.44
2019-03-30T10:48:46.999Z,21.72
2019-03-30T10:49:47.108Z,22.00
2019-03-30T10:50:47.028Z,21.92
2019-03-30T10:51:47.043Z,21.54
2019-03-30T10:52:47.053Z,22.79
2019-03-30T10:53:47.066Z,20.88
2019-03-30T10:54:52.997Z,20.21
2019-03-30T10:55:47.092Z,20.98
2019-03-30T10:56:47.119Z,20.21
2019-03-30T10:57:47.124Z,16.09
2019-03-30T10:58:47.137Z,16.30
2019-03-30T10:59:47.154Z,17.16
2019-03-30T11:00:47.167Z,20.03
2019-03-30T11:01:47.182Z,19.93
2019-03-30T11:02:47.193Z,20.03
2019-03-30T11:03:47.206Z,18.98
2019-03-30T11:04:47.223Z,17.93
2019-03-30T11:05:47.235Z,16.59
2019-03-30T11:06:47.250Z,15.72
2019-03-30T11:07:47.259Z,16.39
2019-03-30T11:08:47.274Z,18.12
2019-03-30T11:09:49.542Z,16.30
2019-03-30T11:10:47.304Z,17.55
2019-03-30T11:11:47.319Z,18.40
2019-03-30T11:12:47.333Z,20.21
2019-03-30T11:13:47.348Z,19.06
2019-03-30T11:14:47.364Z,20.79
2019-03-30T11:15:47.374Z,21.08
2019-03-30T11:16:47.391Z,20.60
2019-03-30T11:17:47.402Z,20.21
2019-03-30T11:18:47.417Z,22.22
2019-03-30T11:19:47.429Z,21.84
2019-03-30T11:20:47.443Z,24.04
2019-03-30T11:21:47.457Z,22.53
2019-03-30T11:22:47.477Z,20.72
2019-03-30T11:23:47.487Z,19.92
2019-03-30T11:24:47.500Z,20.78
2019-03-30T11:25:47.523Z,21.55
2019-03-30T11:26:47.534Z,21.55
2019-03-30T11:27:47.544Z,22.42
2019-03-30T11:28:47.562Z,21.47
2019-03-30T11:29:47.575Z,21.28
2019-03-30T11:30:47.591Z,20.43
2019-03-30T11:31:47.604Z,19.27
2019-03-30T11:32:47.620Z,20.43
2019-03-30T11:33:47.635Z,20.06
2019-03-30T11:34:47.652Z,18.80
2019-03-30T11:35:47.660Z,20.04
2019-03-30T11:36:47.679Z,19.95
2019-03-30T11:37:47.693Z,19.47
2019-03-30T11:38:47.705Z,19.65
2019-03-30T11:39:47.723Z,19.93
2019-03-30T11:40:47.743Z,20.68
2019-03-30T11:41:47.748Z,21.64
2019-03-30T11:42:47.767Z,22.89
2019-03-30T11:43:47.782Z,20.79
2019-03-30T11:44:47.799Z,21.47
2019-03-30T11:45:47.813Z,20.23
2019-03-30T11:46:47.829Z,19.93
2019-03-30T11:47:47.845Z,18.96
2019-03-30T11:48:47.853Z,20.01
2019-03-30T11:49:47.876Z,21.45
2019-03-30T11:50:47.894Z,21.75
2019-03-30T11:51:47.898Z,19.95
2019-03-30T11:52:47.913Z,19.65
2019-03-30T11:53:47.932Z,20.23
2019-03-30T11:54:47.943Z,21.09
2019-03-30T11:55:47.960Z,20.13
2019-03-30T11:56:47.976Z,20.31
2019-03-30T11:57:47.991Z,20.60
2019-03-30T11:58:48.002Z,20.21
2019-03-30T11:59:48.025Z,20.40
2019-03-30T12:00:48.035Z,20.99
2019-03-30T12:01:48.053Z,22.24
2019-03-30T12:02:48.063Z,22.06
2019-03-30T12:03:48.081Z,21.77
2019-03-30T12:04:48.095Z,20.23
2019-03-30T12:05:48.109Z,21.20
2019-03-30T12:06:51.598Z,19.96
2019-03-30T12:07:48.226Z,17.83
2019-03-30T12:08:48.159Z,17.62
2019-03-30T12:09:48.174Z,20.12
2019-03-30T12:10:48.261Z,20.61
2019-03-30T12:11:48.202Z,19.26
2019-03-30T12:12:48.218Z,20.13
2019-03-30T12:13:48.232Z,19.08
2019-03-30T12:14:48.248Z,19.85
2019-03-30T12:15:48.259Z,20.73
2019-03-30T12:16:48.281Z,18.62
2019-03-30T12:17:48.293Z,17.74
2019-03-30T12:18:48.304Z,18.61
2019-03-30T12:19:48.322Z,19.96
2019-03-30T12:20:48.340Z,19.48
2019-03-30T12:21:48.351Z,18.90
2019-03-30T12:22:48.370Z,18.32
2019-03-30T12:23:48.388Z,19.38
2019-03-30T12:24:48.396Z,18.81
2019-03-30T12:25:48.414Z,18.71
2019-03-30T12:26:48.431Z,19.18
2019-03-30T12:27:48.444Z,18.41
2019-03-30T12:28:48.459Z,19.27
2019-03-30T12:29:48.477Z,18.13
2019-03-30T12:30:48.491Z,17.54
2019-03-30T12:31:48.509Z,18.21
2019-03-30T12:32:48.521Z,19.94
2019-03-30T12:33:48.534Z,20.25
2019-03-30T12:34:48.552Z,18.23
2019-03-30T12:35:48.569Z,17.55
2019-03-30T12:36:48.581Z,18.42
2019-03-30T12:37:48.595Z,19.20
2019-03-30T12:38:48.614Z,20.06
2019-03-30T12:39:48.631Z,18.06
2019-03-30T12:40:48.641Z,17.57
2019-03-30T12:41:48.657Z,18.54
2019-03-30T12:42:48.672Z,17.68
2019-03-30T12:43:48.689Z,17.58
2019-03-30T12:44:48.704Z,18.35
2019-03-30T12:45:48.723Z,17.49
2019-03-30T12:46:48.736Z,16.71
2019-03-30T12:47:48.752Z,16.50
2019-03-30T12:48:48.766Z,17.76
2019-03-30T12:49:48.783Z,17.76
2019-03-30T12:50:48.799Z,19.01
2019-03-30T12:51:48.814Z,18.63
2019-03-30T12:52:48.832Z,17.86